sensor_id;sensor_type;location;lat;lon;timestamp;pressure;altitude;pressure_sealevel;temperature;humidity
21824;BME280;11074;48.596;9.238;2023-02-23T00:01:58;97905.59;;;9.66;81.25
21824;BME280;11074;48.596;9.238;2023-02-23T00:04:32;97903.47;;;9.68;81.69
21824;BME280;11074;48.596;9.238;2023-02-23T00:06:58;97896.81;;;9.70;81.12
21824;BME280;11074;48.596;9.238;2023-02-23T00:09:24;97908.31;;;9.71;81.83
21824;BME280;11074;48.596;9.238;2023-02-23T00:11:55;97906.69;;;9.70;81.23
21824;BME280;11074;48.596;9.238;2023-02-23T00:14:26;97903.22;;;9.69;81.25
21824;BME280;11074;48.596;9.238;2023-02-23T00:16:54;97903.22;;;9.69;82.03
21824;BME280;11074;48.596;9.238;2023-02-23T00:19:19;97892.00;;;9.67;81.72
21824;BME280;11074;48.596;9.238;2023-02-23T00:21:45;97897.88;;;9.69;81.03
21824;BME280;11074;48.596;9.238;2023-02-23T00:24:13;97893.03;;;9.66;82.04
21824;BME280;11074;48.596;9.238;2023-02-23T00:26:45;97890.38;;;9.66;81.96
21824;BME280;11074;48.596;9.238;2023-02-23T00:29:19;97894.91;;;9.66;81.18
21824;BME280;11074;48.596;9.238;2023-02-23T00:31:46;97896.50;;;9.67;81.72
21824;BME280;11074;48.596;9.238;2023-02-23T00:34:15;97900.50;;;9.64;82.06
21824;BME280;11074;48.596;9.238;2023-02-23T00:36:48;97899.94;;;9.62;81.78
21824;BME280;11074;48.596;9.238;2023-02-23T00:39:14;97896.19;;;9.63;81.78
21824;BME280;11074;48.596;9.238;2023-02-23T00:41:54;97900.19;;;9.61;81.75
21824;BME280;11074;48.596;9.238;2023-02-23T00:44:21;97893.25;;;9.60;82.54
21824;BME280;11074;48.596;9.238;2023-02-23T00:46:49;97894.84;;;9.61;81.20
21824;BME280;11074;48.596;9.238;2023-02-23T00:49:18;97889.28;;;9.62;81.82
21824;BME280;11074;48.596;9.238;2023-02-23T00:51:44;97898.09;;;9.63;82.18
21824;BME280;11074;48.596;9.238;2023-02-23T00:54:14;97893.81;;;9.62;81.07
21824;BME280;11074;48.596;9.238;2023-02-23T00:56:40;97888.47;;;9.62;82.02
21824;BME280;11074;48.596;9.238;2023-02-23T00:59:06;97890.09;;;9.63;82.09
21824;BME280;11074;48.596;9.238;2023-02-23T01:01:32;97889.81;;;9.64;81.54
21824;BME280;11074;48.596;9.238;2023-02-23T01:03:57;97888.47;;;9.62;82.13
21824;BME280;11074;48.596;9.238;2023-02-23T01:06:23;97883.94;;;9.62;82.43
21824;BME280;11074;48.596;9.238;2023-02-23T01:08:51;97891.94;;;9.62;82.15
21824;BME280;11074;48.596;9.238;2023-02-23T01:11:24;97886.59;;;9.62;82.12
21824;BME280;11074;48.596;9.238;2023-02-23T01:13:58;97892.75;;;9.63;82.48
21824;BME280;11074;48.596;9.238;2023-02-23T01:16:29;97894.84;;;9.61;83.18
21824;BME280;11074;48.596;9.238;2023-02-23T01:18:59;97890.53;;;9.55;84.62
21824;BME280;11074;48.596;9.238;2023-02-23T01:21:41;97892.94;;;9.56;83.89
21824;BME280;11074;48.596;9.238;2023-02-23T01:24:07;97886.78;;;9.56;84.31
21824;BME280;11074;48.596;9.238;2023-02-23T01:26:37;97892.13;;;9.56;83.75
21824;BME280;11074;48.596;9.238;2023-02-23T01:29:11;97886.25;;;9.54;84.91
21824;BME280;11074;48.596;9.238;2023-02-23T01:31:41;97877.44;;;9.53;84.37
21824;BME280;11074;48.596;9.238;2023-02-23T01:34:10;97883.84;;;9.52;85.59
21824;BME280;11074;48.596;9.238;2023-02-23T01:36:39;97878.50;;;9.52;85.40
21824;BME280;11074;48.596;9.238;2023-02-23T01:39:09;97887.81;;;9.50;84.73
21824;BME280;11074;48.596;9.238;2023-02-23T01:41:37;97878.47;;;9.47;85.27
21824;BME280;11074;48.596;9.238;2023-02-23T01:46:44;97879.25;;;9.48;87.24
21824;BME280;11074;48.596;9.238;2023-02-23T01:49:25;97876.03;;;9.46;87.36
21824;BME280;11074;48.596;9.238;2023-02-23T01:54:30;97876.28;;;9.44;88.32
21824;BME280;11074;48.596;9.238;2023-02-23T01:57:01;97878.34;;;9.37;89.12
21824;BME280;11074;48.596;9.238;2023-02-23T01:59:42;97871.94;;;9.38;89.44
21824;BME280;11074;48.596;9.238;2023-02-23T02:02:08;97869.78;;;9.35;89.23
21824;BME280;11074;48.596;9.238;2023-02-23T02:04:37;97863.91;;;9.33;89.08
21824;BME280;11074;48.596;9.238;2023-02-23T02:07:20;97871.63;;;9.35;89.71
21824;BME280;11074;48.596;9.238;2023-02-23T02:09:50;97867.63;;;9.32;90.12
21824;BME280;11074;48.596;9.238;2023-02-23T02:12:55;97866.53;;;9.28;90.41
21824;BME280;11074;48.596;9.238;2023-02-23T02:15:26;97863.03;;;9.28;90.53
21824;BME280;11074;48.596;9.238;2023-02-23T02:18:34;97868.91;;;9.30;90.24
21824;BME280;11074;48.596;9.238;2023-02-23T02:27:56;97867.56;;;9.27;92.11
21824;BME280;11074;48.596;9.238;2023-02-23T02:30:46;97865.72;;;9.28;91.19
21824;BME280;11074;48.596;9.238;2023-02-23T02:39:09;97863.03;;;9.28;91.33
21824;BME280;11074;48.596;9.238;2023-02-23T02:42:20;97862.00;;;9.29;91.41
21824;BME280;11074;48.596;9.238;2023-02-23T02:45:14;97861.19;;;9.28;90.53
21824;BME280;11074;48.596;9.238;2023-02-23T02:47:57;97862.78;;;9.29;90.24
21824;BME280;11074;48.596;9.238;2023-02-23T02:53:19;97858.56;;;9.33;90.34
21824;BME280;11074;48.596;9.238;2023-02-23T02:55:48;97857.50;;;9.34;90.59
21824;BME280;11074;48.596;9.238;2023-02-23T02:58:17;97855.09;;;9.33;90.44
21824;BME280;11074;48.596;9.238;2023-02-23T03:00:48;97855.63;;;9.35;90.19
21824;BME280;11074;48.596;9.238;2023-02-23T03:03:45;97855.63;;;9.35;89.59
21824;BME280;11074;48.596;9.238;2023-02-23T03:06:35;97846.28;;;9.32;89.46
21824;BME280;11074;48.596;9.238;2023-02-23T03:09:54;97851.59;;;9.32;89.26
21824;BME280;11074;48.596;9.238;2023-02-23T03:13:05;97842.28;;;9.35;90.05
21824;BME280;11074;48.596;9.238;2023-02-23T03:19:25;97853.78;;;9.35;89.54
21824;BME280;11074;48.596;9.238;2023-02-23T03:28:47;97847.09;;;9.33;89.66
21824;BME280;11074;48.596;9.238;2023-02-23T03:35:06;97853.38;;;9.22;89.73
21824;BME280;11074;48.596;9.238;2023-02-23T03:38:12;97848.78;;;9.17;91.26
21824;BME280;11074;48.596;9.238;2023-02-23T03:41:02;97851.41;;;9.12;90.63
21824;BME280;11074;48.596;9.238;2023-02-23T03:43:57;97851.34;;;9.07;91.17
21824;BME280;11074;48.596;9.238;2023-02-23T03:46:46;97860.28;;;8.96;92.15
21824;BME280;11074;48.596;9.238;2023-02-23T03:49:38;97855.44;;;8.93;92.53
21824;BME280;11074;48.596;9.238;2023-02-23T03:52:35;97853.88;;;8.97;92.03
21824;BME280;11074;48.596;9.238;2023-02-23T03:55:30;97851.78;;;8.99;91.47
21824;BME280;11074;48.596;9.238;2023-02-23T03:58:24;97857.19;;;9.04;91.16
21824;BME280;11074;48.596;9.238;2023-02-23T04:01:12;97857.41;;;9.02;91.56
21824;BME280;11074;48.596;9.238;2023-02-23T04:03:59;97852.91;;;9.03;90.99
21824;BME280;11074;48.596;9.238;2023-02-23T04:06:46;97858.00;;;9.04;91.85
21824;BME280;11074;48.596;9.238;2023-02-23T04:09:31;97857.25;;;9.09;91.28
21824;BME280;11074;48.596;9.238;2023-02-23T04:12:40;97852.44;;;9.11;91.70
21824;BME280;11074;48.596;9.238;2023-02-23T04:15:35;97856.97;;;9.10;91.56
21824;BME280;11074;48.596;9.238;2023-02-23T04:18:06;97861.00;;;9.13;91.31
21824;BME280;11074;48.596;9.238;2023-02-23T04:20:36;97857.56;;;9.12;92.24
21824;BME280;11074;48.596;9.238;2023-02-23T04:23:02;97856.47;;;9.13;91.10
21824;BME280;11074;48.596;9.238;2023-02-23T04:25:29;97857.84;;;9.16;91.99
21824;BME280;11074;48.596;9.238;2023-02-23T04:27:54;97854.94;;;9.18;91.21
21824;BME280;11074;48.596;9.238;2023-02-23T04:30:20;97856.03;;;9.22;91.00
21824;BME280;11074;48.596;9.238;2023-02-23T04:32:50;97860.56;;;9.21;91.57
21824;BME280;11074;48.596;9.238;2023-02-23T04:35:16;97853.38;;;9.22;91.86
21824;BME280;11074;48.596;9.238;2023-02-23T04:37:42;97858.41;;;9.18;91.36
21824;BME280;11074;48.596;9.238;2023-02-23T04:40:09;97856.31;;;9.20;91.69
21824;BME280;11074;48.596;9.238;2023-02-23T04:42:37;97855.22;;;9.21;91.99
21824;BME280;11074;48.596;9.238;2023-02-23T04:45:04;97860.56;;;9.21;92.08
21824;BME280;11074;48.596;9.238;2023-02-23T04:47:30;97854.19;;;9.22;91.43
21824;BME280;11074;48.596;9.238;2023-02-23T04:49:55;97866.47;;;9.23;91.85
21824;BME280;11074;48.596;9.238;2023-02-23T04:52:21;97853.69;;;9.25;92.70
21824;BME280;11074;48.596;9.238;2023-02-23T04:54:46;97855.81;;;9.23;92.89
21824;BME280;11074;48.596;9.238;2023-02-23T04:57:12;97869.91;;;9.24;92.51
21824;BME280;11074;48.596;9.238;2023-02-23T04:59:38;97868.31;;;9.23;93.03
21824;BME280;11074;48.596;9.238;2023-02-23T05:02:04;97860.31;;;9.23;93.94
21824;BME280;11074;48.596;9.238;2023-02-23T05:04:31;97859.00;;;9.25;92.37
21824;BME280;11074;48.596;9.238;2023-02-23T05:06:59;97857.38;;;9.24;91.94
21824;BME280;11074;48.596;9.238;2023-02-23T05:09:25;97861.69;;;9.25;93.04
21824;BME280;11074;48.596;9.238;2023-02-23T05:11:51;97857.38;;;9.24;92.96
21824;BME280;11074;48.596;9.238;2023-02-23T05:14:17;97860.06;;;9.24;93.36
21824;BME280;11074;48.596;9.238;2023-02-23T05:16:42;97853.38;;;9.22;92.75
21824;BME280;11074;48.596;9.238;2023-02-23T05:19:08;97858.47;;;9.23;92.79
21824;BME280;11074;48.596;9.238;2023-02-23T05:21:34;97861.38;;;9.22;91.70
21824;BME280;11074;48.596;9.238;2023-02-23T05:23:59;97863.00;;;9.23;91.31
21824;BME280;11074;48.596;9.238;2023-02-23T05:26:25;97859.78;;;9.21;91.48
21824;BME280;11074;48.596;9.238;2023-02-23T05:28:51;97856.31;;;9.20;92.04
21824;BME280;11074;48.596;9.238;2023-02-23T05:31:17;97858.97;;;9.20;92.39
21824;BME280;11074;48.596;9.238;2023-02-23T05:33:42;97856.31;;;9.20;91.70
21824;BME280;11074;48.596;9.238;2023-02-23T05:36:13;97862.19;;;9.22;91.14
21824;BME280;11074;48.596;9.238;2023-02-23T05:38:40;97863.00;;;9.23;91.29
21824;BME280;11074;48.596;9.238;2023-02-23T05:41:08;97864.28;;;9.20;93.74
21824;BME280;11074;48.596;9.238;2023-02-23T05:43:34;97857.09;;;9.21;92.54
21824;BME280;11074;48.596;9.238;2023-02-23T05:46:00;97855.47;;;9.20;93.83
21824;BME280;11074;48.596;9.238;2023-02-23T05:48:27;97865.34;;;9.19;92.35
21824;BME280;11074;48.596;9.238;2023-02-23T05:50:53;97860.00;;;9.19;92.68
21824;BME280;11074;48.596;9.238;2023-02-23T05:53:19;97864.78;;;9.17;91.56
21824;BME280;11074;48.596;9.238;2023-02-23T05:55:45;97860.00;;;9.19;91.72
21824;BME280;11074;48.596;9.238;2023-02-23T05:58:10;97860.56;;;9.21;92.20
21824;BME280;11074;48.596;9.238;2023-02-23T06:00:36;97861.63;;;9.20;92.07
21824;BME280;11074;48.596;9.238;2023-02-23T06:03:02;97860.81;;;9.20;91.79
21824;BME280;11074;48.596;9.238;2023-02-23T06:05:27;97859.19;;;9.19;91.96
21824;BME280;11074;48.596;9.238;2023-02-23T06:07:54;97861.88;;;9.19;91.58
21824;BME280;11074;48.596;9.238;2023-02-23T06:10:21;97855.47;;;9.20;91.38
21824;BME280;11074;48.596;9.238;2023-02-23T06:12:47;97865.34;;;9.19;91.37
21824;BME280;11074;48.596;9.238;2023-02-23T06:15:12;97864.78;;;9.17;92.42
21824;BME280;11074;48.596;9.238;2023-02-23T06:17:38;97864.53;;;9.19;93.61
21824;BME280;11074;48.596;9.238;2023-02-23T06:20:04;97869.81;;;9.13;93.46
21824;BME280;11074;48.596;9.238;2023-02-23T06:22:31;97878.34;;;9.15;93.28
21824;BME280;11074;48.596;9.238;2023-02-23T06:24:57;97873.84;;;9.16;92.28
21824;BME280;11074;48.596;9.238;2023-02-23T06:27:23;97880.78;;;9.17;92.80
21824;BME280;11074;48.596;9.238;2023-02-23T06:29:48;97876.50;;;9.16;92.57
21824;BME280;11074;48.596;9.238;2023-02-23T06:32:14;97884.50;;;9.16;93.11
21824;BME280;11074;48.596;9.238;2023-02-23T06:34:40;97888.25;;;9.15;93.39
21824;BME280;11074;48.596;9.238;2023-02-23T06:37:05;97883.97;;;9.14;93.52
21824;BME280;11074;48.596;9.238;2023-02-23T06:39:31;97884.75;;;9.14;92.60
21824;BME280;11074;48.596;9.238;2023-02-23T06:41:57;97891.97;;;9.14;92.84
21824;BME280;11074;48.596;9.238;2023-02-23T06:44:23;97885.81;;;9.13;92.35
21824;BME280;11074;48.596;9.238;2023-02-23T06:46:49;97898.34;;;9.13;93.62
21824;BME280;11074;48.596;9.238;2023-02-23T06:49:14;97894.13;;;9.17;94.84
21824;BME280;11074;48.596;9.238;2023-02-23T06:51:40;97895.75;;;9.18;94.50
21824;BME280;11074;48.596;9.238;2023-02-23T06:54:06;97902.13;;;9.17;94.49
21824;BME280;11074;48.596;9.238;2023-02-23T06:56:31;97903.75;;;9.18;93.56
21824;BME280;11074;48.596;9.238;2023-02-23T06:58:57;97906.16;;;9.20;95.18
21824;BME280;11074;48.596;9.238;2023-02-23T07:01:23;97903.75;;;9.18;94.89
21824;BME280;11074;48.596;9.238;2023-02-23T07:03:48;97908.00;;;9.19;96.01
21824;BME280;11074;48.596;9.238;2023-02-23T07:06:14;97911.50;;;9.20;95.02
21824;BME280;11074;48.596;9.238;2023-02-23T07:08:40;97917.63;;;9.20;93.92
21824;BME280;11074;48.596;9.238;2023-02-23T07:11:12;97919.75;;;9.18;92.99
21824;BME280;11074;48.596;9.238;2023-02-23T07:13:39;97918.69;;;9.19;94.86
21824;BME280;11074;48.596;9.238;2023-02-23T07:16:06;97926.44;;;9.21;94.68
21824;BME280;11074;48.596;9.238;2023-02-23T07:18:32;97931.78;;;9.21;93.06
21824;BME280;11074;48.596;9.238;2023-02-23T07:20:57;97927.22;;;9.21;92.52
21824;BME280;11074;48.596;9.238;2023-02-23T07:23:23;97927.22;;;9.21;92.23
21824;BME280;11074;48.596;9.238;2023-02-23T07:25:51;97927.81;;;9.23;92.07
21824;BME280;11074;48.596;9.238;2023-02-23T07:28:16;97926.50;;;9.26;92.50
21824;BME280;11074;48.596;9.238;2023-02-23T07:30:42;97926.00;;;9.29;92.51
21824;BME280;11074;48.596;9.238;2023-02-23T07:33:08;97929.47;;;9.29;92.36
21824;BME280;11074;48.596;9.238;2023-02-23T07:35:33;97934.56;;;9.31;92.29
21824;BME280;11074;48.596;9.238;2023-02-23T07:37:59;97934.31;;;9.32;92.58
21824;BME280;11074;48.596;9.238;2023-02-23T07:40:25;97929.50;;;9.34;92.04
21824;BME280;11074;48.596;9.238;2023-02-23T07:42:51;97938.38;;;9.40;92.52
21824;BME280;11074;48.596;9.238;2023-02-23T07:45:17;97932.75;;;9.36;92.14
21824;BME280;11074;48.596;9.238;2023-02-23T07:47:43;97935.16;;;9.38;92.83
21824;BME280;11074;48.596;9.238;2023-02-23T07:50:10;97937.59;;;9.39;92.56
21824;BME280;11074;48.596;9.238;2023-02-23T07:52:39;97933.38;;;9.43;91.98
21824;BME280;11074;48.596;9.238;2023-02-23T07:55:06;97927.53;;;9.46;92.54
21824;BME280;11074;48.596;9.238;2023-02-23T07:57:33;97930.50;;;9.50;91.79
21824;BME280;11074;48.596;9.238;2023-02-23T07:59:59;97923.06;;;9.52;93.43
21824;BME280;11074;48.596;9.238;2023-02-23T08:02:26;97928.13;;;9.53;93.28
21824;BME280;11074;48.596;9.238;2023-02-23T08:04:57;97932.97;;;9.56;94.37
21824;BME280;11074;48.596;9.238;2023-02-23T08:07:23;97930.34;;;9.61;93.06
21824;BME280;11074;48.596;9.238;2023-02-23T08:09:50;97937.84;;;9.64;93.18
21824;BME280;11074;48.596;9.238;2023-02-23T08:12:16;97930.97;;;9.68;92.94
21824;BME280;11074;48.596;9.238;2023-02-23T08:14:43;97929.66;;;9.71;93.45
21824;BME280;11074;48.596;9.238;2023-02-23T08:17:10;97930.22;;;9.73;93.28
21824;BME280;11074;48.596;9.238;2023-02-23T08:19:36;97923.00;;;9.73;94.33
21824;BME280;11074;48.596;9.238;2023-02-23T08:22:03;97928.41;;;9.79;93.63
21824;BME280;11074;48.596;9.238;2023-02-23T08:24:29;97935.91;;;9.82;94.22
21824;BME280;11074;48.596;9.238;2023-02-23T08:26:56;97928.19;;;9.85;94.36
21824;BME280;11074;48.596;9.238;2023-02-23T08:29:22;97929.03;;;9.91;93.58
21824;BME280;11074;48.596;9.238;2023-02-23T08:31:48;97933.91;;;9.99;93.97
21824;BME280;11074;48.596;9.238;2023-02-23T08:34:17;97938.22;;;10.00;93.34
21824;BME280;11074;48.596;9.238;2023-02-23T08:36:42;97941.72;;;10.05;93.30
21824;BME280;11074;48.596;9.238;2023-02-23T08:39:10;97934.56;;;10.11;94.45
21824;BME280;11074;48.596;9.238;2023-02-23T08:41:40;97935.69;;;10.15;94.17
21824;BME280;11074;48.596;9.238;2023-02-23T08:44:06;97936.00;;;10.18;93.56
21824;BME280;11074;48.596;9.238;2023-02-23T08:46:32;97938.72;;;10.23;94.14
21824;BME280;11074;48.596;9.238;2023-02-23T08:48:59;97940.06;;;10.26;94.08
21824;BME280;11074;48.596;9.238;2023-02-23T08:51:25;97935.25;;;10.28;94.01
21824;BME280;11074;48.596;9.238;2023-02-23T08:53:50;97938.78;;;10.33;94.33
21824;BME280;11074;48.596;9.238;2023-02-23T08:56:16;97932.13;;;10.36;93.23
21824;BME280;11074;48.596;9.238;2023-02-23T08:58:42;97934.81;;;10.41;93.51
21824;BME280;11074;48.596;9.238;2023-02-23T09:01:16;97934.63;;;10.48;93.06
21824;BME280;11074;48.596;9.238;2023-02-23T09:03:42;97940.22;;;10.51;92.96
21824;BME280;11074;48.596;9.238;2023-02-23T09:06:14;97940.81;;;10.53;93.33
21824;BME280;11074;48.596;9.238;2023-02-23T09:08:40;97942.97;;;10.56;92.80
21824;BME280;11074;48.596;9.238;2023-02-23T09:11:06;97942.44;;;10.59;92.51
21824;BME280;11074;48.596;9.238;2023-02-23T09:13:32;97946.75;;;10.65;92.94
21824;BME280;11074;48.596;9.238;2023-02-23T09:15:58;97944.09;;;10.70;92.00
21824;BME280;11074;48.596;9.238;2023-02-23T09:18:24;97943.34;;;10.75;92.68
21824;BME280;11074;48.596;9.238;2023-02-23T09:20:52;97946.88;;;10.80;92.58
21824;BME280;11074;48.596;9.238;2023-02-23T09:23:18;97949.28;;;10.87;91.93
21824;BME280;11074;48.596;9.238;2023-02-23T09:25:44;97947.19;;;10.94;92.33
21824;BME280;11074;48.596;9.238;2023-02-23T09:28:16;97945.91;;;11.02;91.22
21824;BME280;11074;48.596;9.238;2023-02-23T09:30:44;97939.50;;;11.08;91.56
21824;BME280;11074;48.596;9.238;2023-02-23T09:33:10;97939.53;;;11.13;91.05
21824;BME280;11074;48.596;9.238;2023-02-23T09:35:36;97940.09;;;11.15;90.86
21824;BME280;11074;48.596;9.238;2023-02-23T09:38:04;97939.28;;;11.19;90.88
21824;BME280;11074;48.596;9.238;2023-02-23T09:40:48;97939.59;;;11.28;91.30
21824;BME280;11074;48.596;9.238;2023-02-23T09:43:31;97937.47;;;11.30;89.50
21824;BME280;11074;48.596;9.238;2023-02-23T09:46:29;97935.34;;;11.42;90.40
21824;BME280;11074;48.596;9.238;2023-02-23T09:49:02;97935.94;;;11.49;90.12
21824;BME280;11074;48.596;9.238;2023-02-23T09:51:32;97929.78;;;11.64;89.55
21824;BME280;11074;48.596;9.238;2023-02-23T09:54:02;97931.75;;;11.73;89.37
21824;BME280;11074;48.596;9.238;2023-02-23T09:56:52;97929.06;;;11.83;88.49
21824;BME280;11074;48.596;9.238;2023-02-23T09:59:20;97932.56;;;11.99;86.92
21824;BME280;11074;48.596;9.238;2023-02-23T10:04:30;97941.72;;;12.13;85.61
21824;BME280;11074;48.596;9.238;2023-02-23T10:07:25;97929.66;;;12.21;85.40
21824;BME280;11074;48.596;9.238;2023-02-23T10:10:39;97936.34;;;12.23;84.51
21824;BME280;11074;48.596;9.238;2023-02-23T10:17:28;97937.69;;;12.36;83.57
21824;BME280;11074;48.596;9.238;2023-02-23T10:19:57;97937.41;;;12.42;83.03
21824;BME280;11074;48.596;9.238;2023-02-23T10:22:27;97934.97;;;12.46;83.72
21824;BME280;11074;48.596;9.238;2023-02-23T10:25:01;97933.38;;;12.55;82.72
21824;BME280;11074;48.596;9.238;2023-02-23T10:27:38;97938.19;;;12.68;82.63
21824;BME280;11074;48.596;9.238;2023-02-23T10:30:33;97936.81;;;12.75;82.04
21824;BME280;11074;48.596;9.238;2023-02-23T10:35:49;97935.75;;;12.76;80.68
21824;BME280;11074;48.596;9.238;2023-02-23T10:38:19;97929.81;;;12.90;81.58
21824;BME280;11074;48.596;9.238;2023-02-23T10:40:50;97927.13;;;12.95;81.49
21824;BME280;11074;48.596;9.238;2023-02-23T10:43:18;97926.28;;;12.99;79.50
21824;BME280;11074;48.596;9.238;2023-02-23T10:45:50;97925.50;;;13.09;79.67
21824;BME280;11074;48.596;9.238;2023-02-23T10:48:21;97923.59;;;13.19;79.31
21824;BME280;11074;48.596;9.238;2023-02-23T10:50:51;97918.16;;;13.34;79.82
21824;BME280;11074;48.596;9.238;2023-02-23T10:53:27;97922.16;;;13.37;79.73
21824;BME280;11074;48.596;9.238;2023-02-23T10:56:10;97907.34;;;13.45;78.64
21824;BME280;11074;48.596;9.238;2023-02-23T10:58:58;97904.94;;;13.48;77.61
21824;BME280;11074;48.596;9.238;2023-02-23T11:01:41;97913.75;;;13.54;77.45
21824;BME280;11074;48.596;9.238;2023-02-23T11:04:30;97910.50;;;13.62;77.07
21824;BME280;11074;48.596;9.238;2023-02-23T11:07:20;97912.09;;;13.63;76.57
21824;BME280;11074;48.596;9.238;2023-02-23T11:09:47;97906.72;;;13.68;76.63
21824;BME280;11074;48.596;9.238;2023-02-23T11:12:35;97911.47;;;13.76;75.85
21824;BME280;11074;48.596;9.238;2023-02-23T11:17:45;97907.66;;;13.82;75.08
21824;BME280;11074;48.596;9.238;2023-02-23T11:22:42;97905.78;;;13.82;73.84
21824;BME280;11074;48.596;9.238;2023-02-23T11:25:28;97897.72;;;13.82;73.54
21824;BME280;11074;48.596;9.238;2023-02-23T11:27:56;97899.59;;;13.82;73.46
21824;BME280;11074;48.596;9.238;2023-02-23T11:30:27;97897.44;;;13.84;73.69
21824;BME280;11074;48.596;9.238;2023-02-23T11:33:01;97899.00;;;13.90;73.76
21824;BME280;11074;48.596;9.238;2023-02-23T11:35:36;97883.94;;;13.94;74.39
21824;BME280;11074;48.596;9.238;2023-02-23T11:40:59;97877.59;;;14.14;73.26
21824;BME280;11074;48.596;9.238;2023-02-23T11:43:25;97873.78;;;14.20;73.34
21824;BME280;11074;48.596;9.238;2023-02-23T11:45:55;97879.13;;;14.25;72.83
21824;BME280;11074;48.596;9.238;2023-02-23T11:48:27;97874.25;;;14.27;72.39
21824;BME280;11074;48.596;9.238;2023-02-23T11:50:56;97868.38;;;14.25;72.20
21824;BME280;11074;48.596;9.238;2023-02-23T11:53:38;97864.88;;;14.24;71.52
21824;BME280;11074;48.596;9.238;2023-02-23T11:56:07;97865.97;;;14.23;71.08
21824;BME280;11074;48.596;9.238;2023-02-23T11:58:45;97859.22;;;14.26;71.39
21824;BME280;11074;48.596;9.238;2023-02-23T12:01:15;97865.66;;;14.25;71.36
21824;BME280;11074;48.596;9.238;2023-02-23T12:03:55;97858.38;;;14.30;71.79
21824;BME280;11074;48.596;9.238;2023-02-23T12:06:40;97853.25;;;14.34;71.58
21824;BME280;11074;48.596;9.238;2023-02-23T12:09:29;97854.06;;;14.34;71.44
21824;BME280;11074;48.596;9.238;2023-02-23T12:12:03;97851.38;;;14.34;70.48
21824;BME280;11074;48.596;9.238;2023-02-23T12:17:39;97844.75;;;14.50;69.96
21824;BME280;11074;48.596;9.238;2023-02-23T12:20:26;97846.66;;;14.50;70.51
21824;BME280;11074;48.596;9.238;2023-02-23T12:23:00;97855.28;;;14.47;69.86
21824;BME280;11074;48.596;9.238;2023-02-23T12:25:37;97846.47;;;14.41;69.54
21824;BME280;11074;48.596;9.238;2023-02-23T12:29:09;97840.84;;;14.38;70.33
21824;BME280;11074;48.596;9.238;2023-02-23T12:31:42;97839.25;;;14.37;70.37
21824;BME280;11074;48.596;9.238;2023-02-23T12:34:20;97840.88;;;14.33;71.25
21824;BME280;11074;48.596;9.238;2023-02-23T12:36:58;97843.34;;;14.24;70.83
21824;BME280;11074;48.596;9.238;2023-02-23T12:39:39;97845.13;;;14.10;72.24
21824;BME280;11074;48.596;9.238;2023-02-23T12:42:39;97842.44;;;14.10;71.70
21824;BME280;11074;48.596;9.238;2023-02-23T12:45:19;97841.66;;;14.05;72.29
21824;BME280;11074;48.596;9.238;2023-02-23T12:50:39;97837.72;;;13.92;72.85
21824;BME280;11074;48.596;9.238;2023-02-23T12:53:24;97832.94;;;13.84;72.98
21824;BME280;11074;48.596;9.238;2023-02-23T12:56:03;97834.09;;;13.78;73.67
21824;BME280;11074;48.596;9.238;2023-02-23T12:58:49;97829.78;;;13.77;73.58
21824;BME280;11074;48.596;9.238;2023-02-23T13:01:34;97831.66;;;13.76;73.68
21824;BME280;11074;48.596;9.238;2023-02-23T13:07:04;97824.75;;;13.70;73.81
21824;BME280;11074;48.596;9.238;2023-02-23T13:10:04;97823.56;;;13.81;74.07
21824;BME280;11074;48.596;9.238;2023-02-23T13:12:47;97825.44;;;13.86;73.13
21824;BME280;11074;48.596;9.238;2023-02-23T13:18:44;97822.03;;;14.04;74.16
21824;BME280;11074;48.596;9.238;2023-02-23T13:21:35;97821.19;;;14.09;73.13
21824;BME280;11074;48.596;9.238;2023-02-23T13:24:09;97813.94;;;14.09;72.91
21824;BME280;11074;48.596;9.238;2023-02-23T13:27:14;97813.41;;;14.07;72.11
21824;BME280;11074;48.596;9.238;2023-02-23T13:29:47;97813.94;;;14.09;72.02
21824;BME280;11074;48.596;9.238;2023-02-23T13:32:21;97813.13;;;14.09;71.84
21824;BME280;11074;48.596;9.238;2023-02-23T13:35:16;97816.06;;;14.12;72.10
21824;BME280;11074;48.596;9.238;2023-02-23T13:38:13;97811.19;;;14.14;71.68
21824;BME280;11074;48.596;9.238;2023-02-23T13:41:11;97818.19;;;14.15;72.79
21824;BME280;11074;48.596;9.238;2023-02-23T13:43:56;97816.31;;;14.11;72.46
21824;BME280;11074;48.596;9.238;2023-02-23T13:46:34;97812.31;;;14.08;72.86
21824;BME280;11074;48.596;9.238;2023-02-23T13:49:42;97816.06;;;14.12;72.58
21824;BME280;11074;48.596;9.238;2023-02-23T13:52:57;97822.25;;;14.13;73.46
21824;BME280;11074;48.596;9.238;2023-02-23T13:57:53;97813.84;;;14.19;72.57
21824;BME280;11074;48.596;9.238;2023-02-23T14:00:22;97807.09;;;14.22;72.27
21824;BME280;11074;48.596;9.238;2023-02-23T14:02:49;97808.13;;;14.26;72.63
21824;BME280;11074;48.596;9.238;2023-02-23T14:05:25;97807.84;;;14.27;72.40
21824;BME280;11074;48.596;9.238;2023-02-23T14:07:55;97806.47;;;14.30;72.17
21824;BME280;11074;48.596;9.238;2023-02-23T14:10:29;97807.81;;;14.32;72.27
21824;BME280;11074;48.596;9.238;2023-02-23T14:13:24;97812.06;;;14.38;71.51
21824;BME280;11074;48.596;9.238;2023-02-23T14:16:19;97800.16;;;14.44;70.59
21824;BME280;11074;48.596;9.238;2023-02-23T14:19:13;97794.22;;;14.47;70.30
21824;BME280;11074;48.596;9.238;2023-02-23T14:22:11;97798.38;;;14.58;70.39
21824;BME280;11074;48.596;9.238;2023-02-23T14:24:38;97795.34;;;14.65;69.51
21824;BME280;11074;48.596;9.238;2023-02-23T14:27:32;97786.16;;;14.71;69.38
21824;BME280;11074;48.596;9.238;2023-02-23T14:32:48;97785.28;;;14.76;69.94
21824;BME280;11074;48.596;9.238;2023-02-23T14:35:50;97793.13;;;14.72;69.93
21824;BME280;11074;48.596;9.238;2023-02-23T14:38:32;97781.28;;;14.73;69.45
21824;BME280;11074;48.596;9.238;2023-02-23T14:41:02;97783.66;;;14.75;69.59
21824;BME280;11074;48.596;9.238;2023-02-23T14:46:20;97784.47;;;14.75;69.24
21824;BME280;11074;48.596;9.238;2023-02-23T14:49:24;97797.19;;;14.70;68.64
21824;BME280;11074;48.596;9.238;2023-02-23T14:51:52;97788.38;;;14.64;68.50
21824;BME280;11074;48.596;9.238;2023-02-23T14:54:30;97794.63;;;14.60;69.32
21824;BME280;11074;48.596;9.238;2023-02-23T14:57:00;97787.69;;;14.53;68.73